createdAt,value
2018-08-09T00:02:40.895Z,81.80
2018-08-09T00:05:44.223Z,81.50
2018-08-09T00:08:47.621Z,81.60
2018-08-09T00:11:50.940Z,81.60
2018-08-09T00:14:54.296Z,82.00
2018-08-09T00:17:57.629Z,82.50
2018-08-09T00:21:00.955Z,82.40
2018-08-09T00:24:04.797Z,82.90
2018-08-09T00:27:08.140Z,82.80
2018-08-09T00:30:11.504Z,82.60
2018-08-09T00:33:14.848Z,83.10
2018-08-09T00:36:18.168Z,83.40
2018-08-09T00:39:21.509Z,83.20
2018-08-09T00:42:24.857Z,84.10
2018-08-09T00:45:28.200Z,84.70
2018-08-09T00:48:31.561Z,84.00
2018-08-09T00:51:35.009Z,84.40
2018-08-09T00:54:38.362Z,83.60
2018-08-09T00:57:41.696Z,83.90
2018-08-09T01:00:45.029Z,83.40
2018-08-09T01:03:48.368Z,84.00
2018-08-09T01:06:51.703Z,84.30
2018-08-09T01:09:55.052Z,83.90
2018-08-09T01:12:58.368Z,84.30
2018-08-09T01:16:01.712Z,85.30
2018-08-09T01:19:05.104Z,85.10
2018-08-09T01:22:08.457Z,84.90
2018-08-09T01:25:11.910Z,85.00
2018-08-09T01:28:15.227Z,85.00
2018-08-09T01:31:28.391Z,85.30
2018-08-09T01:34:31.743Z,85.40
2018-08-09T01:37:35.068Z,85.80
2018-08-09T01:40:38.420Z,86.20
2018-08-09T01:43:56.925Z,86.20
2018-08-09T01:47:00.288Z,86.30
2018-08-09T01:50:03.732Z,86.20
2018-08-09T01:53:07.085Z,85.80
2018-08-09T01:56:10.455Z,85.60
2018-08-09T01:59:13.787Z,85.60
2018-08-09T02:02:17.141Z,85.50
2018-08-09T02:05:20.518Z,85.20
2018-08-09T02:08:23.975Z,85.20
2018-08-09T02:11:27.345Z,85.20
2018-08-09T02:14:30.679Z,85.00
2018-08-09T02:17:34.039Z,84.70
2018-08-09T02:20:37.403Z,85.50
2018-08-09T02:23:40.768Z,85.50
2018-08-09T02:26:44.128Z,85.60
2018-08-09T02:29:47.500Z,85.80
2018-08-09T02:32:50.966Z,85.40
2018-08-09T02:35:54.367Z,85.80
2018-08-09T02:38:57.748Z,86.30
2018-08-09T02:42:01.136Z,86.30
2018-08-09T02:45:04.588Z,86.60
2018-08-09T02:48:07.924Z,87.00
2018-08-09T02:51:11.287Z,86.20
2018-08-09T02:54:14.633Z,86.20
2018-08-09T02:57:17.996Z,86.60
2018-08-09T03:00:21.365Z,86.50
2018-08-09T03:03:24.808Z,86.70
2018-08-09T03:06:28.164Z,86.90
2018-08-09T03:09:31.524Z,86.80
2018-08-09T03:12:34.916Z,86.90
2018-08-09T03:15:38.327Z,87.30
2018-08-09T03:18:41.692Z,87.30
2018-08-09T03:21:45.113Z,87.80
2018-08-09T03:24:48.476Z,88.40
2018-08-09T03:27:51.844Z,88.40
2018-08-09T03:30:55.243Z,88.80
2018-08-09T03:33:58.589Z,88.80
2018-08-09T03:37:01.983Z,88.60
2018-08-09T03:40:05.491Z,89.60
2018-08-09T03:43:08.867Z,89.60
2018-08-09T03:46:12.244Z,89.00
2018-08-09T03:49:15.589Z,89.60
2018-08-09T03:52:18.956Z,89.30
2018-08-09T03:55:22.307Z,89.00
2018-08-09T03:58:25.683Z,89.30
2018-08-09T04:01:29.047Z,88.70
2018-08-09T04:04:32.399Z,88.90
2018-08-09T04:07:35.792Z,88.10
2018-08-09T04:10:39.140Z,88.40
2018-08-09T04:13:42.514Z,89.70
2018-08-09T04:16:45.866Z,89.80
2018-08-09T04:19:50.699Z,89.50
2018-08-09T04:22:54.077Z,89.30
2018-08-09T04:25:57.424Z,89.10
2018-08-09T04:29:00.779Z,88.90
2018-08-09T04:32:04.145Z,88.80
2018-08-09T04:35:07.476Z,90.00
2018-08-09T04:38:10.855Z,89.30
2018-08-09T04:41:14.198Z,88.70
2018-08-09T04:44:17.565Z,89.70
2018-08-09T04:47:21.024Z,89.70
2018-08-09T04:50:24.396Z,89.80
2018-08-09T04:53:27.715Z,89.90
2018-08-09T04:56:31.054Z,90.00
2018-08-09T04:59:34.406Z,88.70
2018-08-09T05:02:37.780Z,88.90
2018-08-09T05:05:41.113Z,89.40
2018-08-09T05:08:44.490Z,88.90
2018-08-09T05:11:47.828Z,88.70
2018-08-09T05:14:51.176Z,88.50
2018-08-09T05:17:54.532Z,88.90
2018-08-09T05:20:57.852Z,88.60
2018-08-09T05:24:01.204Z,88.20
2018-08-09T05:27:04.542Z,87.80
2018-08-09T05:30:07.955Z,89.60
2018-08-09T05:33:11.296Z,88.60
2018-08-09T05:36:14.657Z,89.00
2018-08-09T05:39:18.000Z,88.40
2018-08-09T05:42:21.404Z,87.70
2018-08-09T05:45:24.749Z,87.90
2018-08-09T05:48:28.097Z,86.80
2018-08-09T05:51:31.452Z,86.80
2018-08-09T05:54:34.809Z,86.10
2018-08-09T05:57:38.131Z,85.30
2018-08-09T06:00:41.485Z,85.30
2018-08-09T06:03:44.835Z,85.90
2018-08-09T06:06:48.185Z,85.70
2018-08-09T06:09:51.541Z,85.60
2018-08-09T06:12:54.916Z,84.90
2018-08-09T06:15:58.300Z,84.30
2018-08-09T06:19:01.653Z,84.90
2018-08-09T06:22:04.996Z,84.80
2018-08-09T06:25:08.361Z,85.10
2018-08-09T06:28:11.768Z,85.10
2018-08-09T06:31:15.164Z,83.70
2018-08-09T06:34:18.554Z,80.80
2018-08-09T06:37:21.943Z,74.70
2018-08-09T06:40:25.355Z,72.90
2018-08-09T06:43:28.758Z,70.40
2018-08-09T06:46:32.132Z,70.30
2018-08-09T06:49:35.472Z,72.50
2018-08-09T06:52:38.831Z,73.10
2018-08-09T06:55:42.215Z,74.80
2018-08-09T06:58:45.548Z,75.10
2018-08-09T07:01:48.923Z,75.80
2018-08-09T07:04:52.290Z,73.70
2018-08-09T07:07:55.634Z,73.70
2018-08-09T07:10:59.000Z,70.90
2018-08-09T07:14:02.332Z,70.40
2018-08-09T07:17:05.688Z,69.90
2018-08-09T07:20:09.880Z,67.10
2018-08-09T07:23:13.228Z,68.00
2018-08-09T07:26:16.614Z,67.90
2018-08-09T07:29:19.974Z,66.40
2018-08-09T07:32:23.335Z,65.80
2018-08-09T07:35:26.692Z,65.60
2018-08-09T07:38:30.063Z,64.30
2018-08-09T07:41:33.428Z,63.90
2018-08-09T07:44:36.796Z,63.40
2018-08-09T07:47:40.269Z,62.60
2018-08-09T07:50:43.624Z,61.90
2018-08-09T07:53:46.959Z,60.50
2018-08-09T07:56:50.353Z,60.70
2018-08-09T07:59:53.781Z,60.50
2018-08-09T08:02:57.161Z,61.50
2018-08-09T08:06:00.555Z,59.90
2018-08-09T08:09:06.034Z,59.40
2018-08-09T08:12:09.400Z,58.70
2018-08-09T08:15:12.748Z,58.30
2018-08-09T08:18:16.158Z,59.00
2018-08-09T08:21:19.552Z,58.00
2018-08-09T08:24:22.889Z,59.50
2018-08-09T08:27:26.283Z,58.10
2018-08-09T08:30:29.627Z,57.40
2018-08-09T08:33:32.979Z,57.10
2018-08-09T08:36:36.343Z,55.50
2018-08-09T08:39:39.677Z,56.80
2018-08-09T08:42:43.116Z,55.90
2018-08-09T08:45:46.549Z,54.90
2018-08-09T08:48:49.915Z,54.40
2018-08-09T08:51:53.346Z,54.00
2018-08-09T08:54:56.677Z,55.10
2018-08-09T08:58:00.071Z,54.20
2018-08-09T09:01:03.528Z,52.90
2018-08-09T09:04:06.820Z,52.70
2018-08-09T09:07:10.310Z,51.40
2018-08-09T09:10:14.056Z,51.80
2018-08-09T09:13:17.404Z,51.10
2018-08-09T09:16:21.006Z,50.90
2018-08-09T09:19:24.356Z,52.00
2018-08-09T09:22:27.712Z,49.30
2018-08-09T09:25:31.220Z,51.10
2018-08-09T09:28:34.609Z,49.40
2018-08-09T09:31:37.968Z,48.90
2018-08-09T09:34:41.332Z,48.70
2018-08-09T09:37:45.173Z,49.90
2018-08-09T09:40:48.628Z,48.80
2018-08-09T09:43:52.028Z,48.50
2018-08-09T09:46:55.448Z,48.90
2018-08-09T09:49:58.797Z,47.40
2018-08-09T09:53:02.132Z,48.60
2018-08-09T09:56:05.526Z,46.90
2018-08-09T09:59:08.848Z,47.90
2018-08-09T10:02:12.287Z,46.60
2018-08-09T10:05:16.080Z,47.30
2018-08-09T10:08:19.451Z,44.80
2018-08-09T10:11:22.787Z,46.30
2018-08-09T10:14:26.132Z,45.50
2018-08-09T10:17:29.467Z,44.50
2018-08-09T10:20:32.809Z,46.70
2018-08-09T10:23:36.160Z,45.60
2018-08-09T10:26:39.495Z,46.30
2018-08-09T10:29:42.848Z,44.90
2018-08-09T10:32:46.194Z,44.40
2018-08-09T10:35:49.558Z,46.30
2018-08-09T10:38:52.925Z,45.50
2018-08-09T10:41:56.245Z,42.20
2018-08-09T10:44:59.588Z,43.80
2018-08-09T10:48:02.931Z,41.40
2018-08-09T10:51:06.288Z,41.70
2018-08-09T10:54:09.652Z,41.60
2018-08-09T10:57:13.010Z,41.10
2018-08-09T11:00:16.348Z,41.10
2018-08-09T11:03:19.697Z,40.70
2018-08-09T11:06:23.048Z,40.70
2018-08-09T11:09:26.380Z,41.50
2018-08-09T11:12:29.741Z,41.70
2018-08-09T11:15:33.189Z,40.90
2018-08-09T11:18:36.536Z,41.90
2018-08-09T11:21:39.905Z,40.00
2018-08-09T11:24:43.233Z,38.30
2018-08-09T11:27:46.685Z,38.20
2018-08-09T11:30:50.109Z,39.60
2018-08-09T11:33:53.450Z,40.70
2018-08-09T11:36:56.829Z,40.00
2018-08-09T11:40:00.181Z,39.30
2018-08-09T11:43:03.710Z,37.80
2018-08-09T11:46:07.124Z,38.30
2018-08-09T11:49:10.480Z,36.90
2018-08-09T11:52:13.835Z,38.80
2018-08-09T11:55:17.216Z,37.50
2018-08-09T11:58:20.552Z,38.30
2018-08-09T12:01:23.937Z,37.70
2018-08-09T12:04:27.291Z,37.70
2018-08-09T12:07:30.640Z,37.90
2018-08-09T12:10:34.075Z,34.10
2018-08-09T12:13:37.500Z,37.60
2018-08-09T12:16:40.896Z,35.10
2018-08-09T12:19:44.255Z,38.80
2018-08-09T12:22:47.636Z,37.80
2018-08-09T12:25:51.045Z,34.40
2018-08-09T12:28:54.473Z,34.30
2018-08-09T12:31:57.872Z,33.00
2018-08-09T12:35:01.267Z,33.00
2018-08-09T12:38:04.697Z,32.00
2018-08-09T12:41:08.117Z,33.00
2018-08-09T12:44:11.713Z,33.70
2018-08-09T12:47:15.116Z,33.90
2018-08-09T12:50:18.451Z,33.40
2018-08-09T12:53:21.857Z,32.40
2018-08-09T12:56:25.216Z,31.70
2018-08-09T12:59:28.559Z,38.50
2018-08-09T13:02:31.965Z,32.30
2018-08-09T13:05:35.319Z,32.20
2018-08-09T13:08:38.727Z,31.90
2018-08-09T13:11:42.116Z,30.30
2018-08-09T13:14:45.488Z,30.70
2018-08-09T13:17:48.921Z,31.60
2018-08-09T13:20:52.314Z,32.50
2018-08-09T13:23:55.760Z,33.60
2018-08-09T13:26:59.136Z,38.50
2018-08-09T13:30:02.677Z,42.50
2018-08-09T13:33:06.127Z,45.80
2018-08-09T13:36:09.520Z,47.70
2018-08-09T13:39:13.838Z,50.00
2018-08-09T13:42:17.204Z,51.80
2018-08-09T13:45:20.599Z,52.00
2018-08-09T13:48:24.004Z,51.80
2018-08-09T13:51:27.397Z,52.90
2018-08-09T13:54:30.883Z,57.40
2018-08-09T13:57:34.335Z,62.00
2018-08-09T14:00:37.717Z,65.50
2018-08-09T14:03:41.093Z,69.60
2018-08-09T14:06:44.496Z,72.80
2018-08-09T14:09:47.904Z,74.40
2018-08-09T14:12:51.380Z,76.50
2018-08-09T14:15:54.892Z,77.30
2018-08-09T14:18:58.385Z,77.00
2018-08-09T14:22:01.784Z,77.70
2018-08-09T14:25:05.970Z,78.30
2018-08-09T14:28:09.363Z,78.00
2018-08-09T14:31:12.744Z,78.60
2018-08-09T14:34:16.089Z,78.00
2018-08-09T14:37:19.427Z,77.40
2018-08-09T14:40:22.771Z,77.60
2018-08-09T14:43:26.183Z,77.50
2018-08-09T14:46:29.537Z,77.80
2018-08-09T14:49:32.903Z,79.40
2018-08-09T14:52:36.541Z,77.80
2018-08-09T14:55:39.935Z,77.50
2018-08-09T14:58:43.321Z,77.00
2018-08-09T15:01:46.664Z,75.80
2018-08-09T15:04:50.041Z,74.80
2018-08-09T15:07:53.375Z,76.70
2018-08-09T15:10:56.789Z,76.30
2018-08-09T15:14:00.196Z,75.40
2018-08-09T15:17:03.597Z,75.30
2018-08-09T15:20:09.084Z,74.20
2018-08-09T15:23:12.484Z,78.90
2018-08-09T15:26:15.937Z,80.00
2018-08-09T15:29:19.409Z,80.20
2018-08-09T15:32:22.778Z,80.90
2018-08-09T15:35:26.164Z,80.60
2018-08-09T15:38:29.535Z,81.60
2018-08-09T15:41:32.934Z,80.90
2018-08-09T15:44:36.438Z,81.20
2018-08-09T15:47:40.513Z,80.70
2018-08-09T15:50:43.851Z,79.40
2018-08-09T15:53:47.241Z,80.20
2018-08-09T16:17:55.112Z,74.00
2018-08-09T16:45:25.377Z,70.30
2018-08-09T16:52:09.541Z,74.40
2018-08-09T16:55:15.892Z,74.60
2018-08-09T16:58:20.428Z,76.00
2018-08-09T17:01:24.978Z,78.40
2018-08-09T17:04:29.495Z,80.50
2018-08-09T17:07:34.031Z,79.90
2018-08-09T17:10:38.564Z,76.90
2018-08-09T17:13:43.078Z,77.90
2018-08-09T17:16:47.605Z,79.00
2018-08-09T17:19:52.139Z,79.60
2018-08-09T17:22:57.065Z,80.40
2018-08-09T17:26:01.595Z,80.80
2018-08-09T17:29:07.558Z,80.50
2018-08-09T17:32:12.077Z,80.20
2018-08-09T17:35:17.619Z,80.00
2018-08-09T17:38:22.156Z,80.00
2018-08-09T17:41:26.683Z,82.60
2018-08-09T17:44:31.207Z,75.80
2018-08-09T17:47:35.650Z,71.50
2018-08-09T17:50:40.173Z,68.60
2018-08-09T17:53:44.663Z,67.80
2018-08-09T17:56:49.581Z,67.90
2018-08-09T17:59:54.022Z,67.70
2018-08-09T18:02:58.541Z,69.00
2018-08-09T18:06:03.027Z,69.00
2018-08-09T18:09:10.757Z,70.60
2018-08-09T18:12:15.815Z,73.30
2018-08-09T18:15:20.833Z,72.90
2018-08-09T18:18:25.298Z,73.00
2018-08-09T18:21:29.746Z,74.20
2018-08-09T18:24:34.264Z,71.60
2018-08-09T18:27:38.849Z,74.90
2018-08-09T18:30:43.346Z,72.50
2018-08-09T18:33:47.842Z,71.30
2018-08-09T18:36:52.320Z,69.70
2018-08-09T18:39:56.842Z,72.30
2018-08-09T18:43:01.357Z,71.30
2018-08-09T18:46:05.962Z,74.80
2018-08-09T18:49:10.453Z,72.50
2018-08-09T18:52:15.046Z,72.30
2018-08-09T18:55:20.181Z,73.40
2018-08-09T18:58:24.679Z,73.40
2018-08-09T19:01:29.141Z,73.00
2018-08-09T19:04:34.307Z,72.40
2018-08-09T19:07:38.998Z,70.80
2018-08-09T19:10:43.438Z,72.00
2018-08-09T19:13:47.987Z,71.70
2018-08-09T19:16:52.446Z,72.60
2018-08-09T19:19:57.008Z,73.60
2018-08-09T19:23:01.873Z,72.60
2018-08-09T19:26:06.397Z,73.20
2018-08-09T19:29:10.899Z,74.30
2018-08-09T19:32:15.448Z,73.80
2018-08-09T19:35:21.036Z,76.20
2018-08-09T19:38:25.526Z,77.60
2018-08-09T19:41:29.967Z,78.60
2018-08-09T19:44:34.479Z,79.50
2018-08-09T19:47:39.170Z,79.30
2018-08-09T19:50:43.644Z,81.50
2018-08-09T19:53:48.117Z,80.20
2018-08-09T19:56:52.544Z,81.50
2018-08-09T19:59:57.091Z,80.80
2018-08-09T20:03:01.492Z,81.40
2018-08-09T20:06:06.009Z,81.80
2018-08-09T20:09:11.160Z,81.80
2018-08-09T20:12:15.573Z,81.60
2018-08-09T20:15:22.523Z,81.90
2018-08-09T20:18:27.021Z,81.60
2018-08-09T20:21:31.531Z,82.50
2018-08-09T20:24:36.074Z,82.90
2018-08-09T20:27:40.910Z,82.60
2018-08-09T20:30:45.537Z,83.10
2018-08-09T20:33:50.064Z,82.90
2018-08-09T20:36:54.482Z,82.90
2018-08-09T20:39:58.942Z,82.40
2018-08-09T20:43:03.434Z,82.70
2018-08-09T20:46:07.960Z,81.80
2018-08-09T20:49:12.557Z,81.60
2018-08-09T20:52:16.969Z,81.90
2018-08-09T20:55:21.436Z,82.60
2018-08-09T20:58:25.961Z,83.00
2018-08-09T21:01:30.460Z,83.70
2018-08-09T21:04:35.019Z,83.70
2018-08-09T21:07:39.539Z,83.90
2018-08-09T21:10:44.070Z,83.60
2018-08-09T21:13:48.553Z,83.90
2018-08-09T21:16:53.014Z,83.90
2018-08-09T21:19:57.503Z,84.00
2018-08-09T21:23:01.965Z,84.30
2018-08-09T21:26:06.491Z,83.30
2018-08-09T21:29:11.021Z,83.60
2018-08-09T21:32:15.553Z,83.60
2018-08-09T21:35:20.067Z,83.20
2018-08-09T21:38:24.562Z,83.90
2018-08-09T21:41:29.045Z,83.50
2018-08-09T21:44:33.542Z,83.90
2018-08-09T21:47:38.092Z,83.60
2018-08-09T21:50:42.594Z,84.60
2018-08-09T21:53:47.136Z,83.50
2018-08-09T21:56:51.645Z,83.70
2018-08-09T21:59:56.091Z,82.30
2018-08-09T22:03:00.595Z,81.40
2018-08-09T22:06:10.266Z,80.90
2018-08-09T22:09:19.994Z,81.80
2018-08-09T22:12:29.749Z,83.50
2018-08-09T22:15:39.487Z,84.40
2018-08-09T22:18:49.135Z,85.30
2018-08-09T22:21:58.984Z,84.90
2018-08-09T22:25:03.508Z,83.60
2018-08-09T22:28:08.135Z,82.70
2018-08-09T22:31:13.070Z,81.20
2018-08-09T22:34:17.494Z,80.30
2018-08-09T22:37:21.940Z,78.50
2018-08-09T22:40:26.326Z,77.20
2018-08-09T22:43:30.765Z,75.50
2018-08-09T22:46:35.227Z,75.70
2018-08-09T22:49:39.666Z,75.00
2018-08-09T22:52:44.140Z,77.20
2018-08-09T22:55:48.664Z,76.80
2018-08-09T22:58:53.189Z,75.70
2018-08-09T23:01:57.645Z,77.20
2018-08-09T23:05:02.144Z,75.80
2018-08-09T23:08:08.217Z,74.40
2018-08-09T23:11:12.670Z,72.40
2018-08-09T23:14:17.149Z,70.40
2018-08-09T23:17:21.657Z,69.50
2018-08-09T23:20:26.100Z,69.10
2018-08-09T23:23:30.551Z,70.60
2018-08-09T23:26:35.049Z,70.70
2018-08-09T23:29:39.505Z,69.30
2018-08-09T23:32:43.999Z,70.20
2018-08-09T23:35:48.430Z,70.00
2018-08-09T23:38:52.841Z,69.70
2018-08-09T23:41:57.265Z,68.70
2018-08-09T23:45:01.742Z,68.20
2018-08-09T23:48:06.576Z,69.20
2018-08-09T23:51:11.050Z,69.70
2018-08-09T23:54:15.575Z,70.50
2018-08-09T23:57:20.000Z,70.30
